sensor_id;sensor_type;location;lat;lon;timestamp;P1;durP1;ratioP1;P2;durP2;ratioP2
69305;SDS011;56427;51.580;4.656;2024-03-08T00:02:19;37.47;;;16.97;;
69305;SDS011;56427;51.580;4.656;2024-03-08T00:04:45;45.17;;;19.97;;
69305;SDS011;56427;51.580;4.656;2024-03-08T00:07:11;43.37;;;18.70;;
69305;SDS011;56427;51.580;4.656;2024-03-08T00:09:36;42.83;;;18.10;;
69305;SDS011;56427;51.580;4.656;2024-03-08T00:12:01;33.23;;;15.23;;
69305;SDS011;56427;51.580;4.656;2024-03-08T00:14:26;45.43;;;17.77;;
69305;SDS011;56427;51.580;4.656;2024-03-08T00:16:52;35.53;;;17.23;;
69305;SDS011;56427;51.580;4.656;2024-03-08T00:19:19;40.20;;;16.55;;
69305;SDS011;56427;51.580;4.656;2024-03-08T00:21:44;36.73;;;16.13;;
69305;SDS011;56427;51.580;4.656;2024-03-08T00:24:10;35.37;;;16.60;;
69305;SDS011;56427;51.580;4.656;2024-03-08T00:26:35;29.23;;;13.80;;
69305;SDS011;56427;51.580;4.656;2024-03-08T00:29:00;43.22;;;16.50;;
69305;SDS011;56427;51.580;4.656;2024-03-08T00:31:26;39.28;;;17.17;;
69305;SDS011;56427;51.580;4.656;2024-03-08T00:33:51;35.40;;;18.30;;
69305;SDS011;56427;51.580;4.656;2024-03-08T00:36:17;37.20;;;17.55;;
69305;SDS011;56427;51.580;4.656;2024-03-08T00:38:42;37.30;;;17.30;;
69305;SDS011;56427;51.580;4.656;2024-03-08T00:41:08;39.63;;;16.90;;
69305;SDS011;56427;51.580;4.656;2024-03-08T00:43:33;32.77;;;16.57;;
69305;SDS011;56427;51.580;4.656;2024-03-08T00:45:59;31.48;;;15.85;;
69305;SDS011;56427;51.580;4.656;2024-03-08T00:48:24;42.73;;;17.63;;
69305;SDS011;56427;51.580;4.656;2024-03-08T00:50:49;37.40;;;16.63;;
69305;SDS011;56427;51.580;4.656;2024-03-08T00:53:15;36.00;;;17.93;;
69305;SDS011;56427;51.580;4.656;2024-03-08T00:55:40;40.78;;;16.70;;
69305;SDS011;56427;51.580;4.656;2024-03-08T00:58:05;40.40;;;16.43;;
69305;SDS011;56427;51.580;4.656;2024-03-08T01:00:31;42.27;;;18.97;;
69305;SDS011;56427;51.580;4.656;2024-03-08T01:02:56;39.30;;;17.70;;
69305;SDS011;56427;51.580;4.656;2024-03-08T01:05:22;37.60;;;18.30;;
69305;SDS011;56427;51.580;4.656;2024-03-08T01:07:49;44.72;;;18.77;;
69305;SDS011;56427;51.580;4.656;2024-03-08T01:10:15;37.40;;;17.30;;
69305;SDS011;56427;51.580;4.656;2024-03-08T01:12:40;34.03;;;17.35;;
69305;SDS011;56427;51.580;4.656;2024-03-08T01:15:07;37.37;;;15.63;;
69305;SDS011;56427;51.580;4.656;2024-03-08T01:17:34;38.17;;;17.77;;
69305;SDS011;56427;51.580;4.656;2024-03-08T01:19:59;32.53;;;15.33;;
69305;SDS011;56427;51.580;4.656;2024-03-08T01:22:25;38.05;;;17.85;;
69305;SDS011;56427;51.580;4.656;2024-03-08T01:24:50;37.33;;;17.53;;
69305;SDS011;56427;51.580;4.656;2024-03-08T01:27:15;35.60;;;18.20;;
69305;SDS011;56427;51.580;4.656;2024-03-08T01:29:41;36.33;;;16.73;;
69305;SDS011;56427;51.580;4.656;2024-03-08T01:32:06;41.33;;;17.83;;
69305;SDS011;56427;51.580;4.656;2024-03-08T01:34:31;36.13;;;17.13;;
69305;SDS011;56427;51.580;4.656;2024-03-08T01:36:58;38.42;;;15.55;;
69305;SDS011;56427;51.580;4.656;2024-03-08T01:39:24;33.55;;;17.13;;
69305;SDS011;56427;51.580;4.656;2024-03-08T01:41:49;40.13;;;18.03;;
69305;SDS011;56427;51.580;4.656;2024-03-08T01:44:14;30.43;;;13.90;;
69305;SDS011;56427;51.580;4.656;2024-03-08T01:46:43;36.03;;;16.35;;
69305;SDS011;56427;51.580;4.656;2024-03-08T01:49:09;29.30;;;15.40;;
69305;SDS011;56427;51.580;4.656;2024-03-08T01:51:36;35.20;;;17.30;;
69305;SDS011;56427;51.580;4.656;2024-03-08T01:54:01;37.03;;;18.65;;
69305;SDS011;56427;51.580;4.656;2024-03-08T01:56:28;39.05;;;18.88;;
69305;SDS011;56427;51.580;4.656;2024-03-08T01:58:56;34.53;;;15.03;;
69305;SDS011;56427;51.580;4.656;2024-03-08T02:01:22;37.80;;;18.05;;
69305;SDS011;56427;51.580;4.656;2024-03-08T02:03:49;31.70;;;17.48;;
69305;SDS011;56427;51.580;4.656;2024-03-08T02:06:15;34.10;;;17.48;;
69305;SDS011;56427;51.580;4.656;2024-03-08T02:08:44;38.25;;;18.13;;
69305;SDS011;56427;51.580;4.656;2024-03-08T02:11:10;38.00;;;18.33;;
69305;SDS011;56427;51.580;4.656;2024-03-08T02:13:36;36.80;;;16.83;;
69305;SDS011;56427;51.580;4.656;2024-03-08T02:16:02;34.72;;;16.02;;
69305;SDS011;56427;51.580;4.656;2024-03-08T02:18:28;38.60;;;17.23;;
69305;SDS011;56427;51.580;4.656;2024-03-08T02:21:12;31.27;;;16.20;;
69305;SDS011;56427;51.580;4.656;2024-03-08T02:23:43;36.10;;;17.37;;
69305;SDS011;56427;51.580;4.656;2024-03-08T02:26:08;34.72;;;16.98;;
69305;SDS011;56427;51.580;4.656;2024-03-08T02:28:33;33.63;;;18.33;;
69305;SDS011;56427;51.580;4.656;2024-03-08T02:30:59;35.63;;;16.87;;
69305;SDS011;56427;51.580;4.656;2024-03-08T02:33:25;36.53;;;17.80;;
69305;SDS011;56427;51.580;4.656;2024-03-08T02:35:52;33.88;;;17.67;;
69305;SDS011;56427;51.580;4.656;2024-03-08T02:38:18;36.67;;;18.37;;
69305;SDS011;56427;51.580;4.656;2024-03-08T02:40:48;33.95;;;18.17;;
69305;SDS011;56427;51.580;4.656;2024-03-08T02:43:16;33.88;;;15.82;;
69305;SDS011;56427;51.580;4.656;2024-03-08T02:45:43;37.60;;;17.90;;
69305;SDS011;56427;51.580;4.656;2024-03-08T02:48:09;32.28;;;17.45;;
69305;SDS011;56427;51.580;4.656;2024-03-08T02:50:34;29.13;;;15.23;;
69305;SDS011;56427;51.580;4.656;2024-03-08T02:53:01;35.43;;;17.10;;
69305;SDS011;56427;51.580;4.656;2024-03-08T02:55:26;34.95;;;16.38;;
69305;SDS011;56427;51.580;4.656;2024-03-08T02:57:52;34.27;;;17.23;;
69305;SDS011;56427;51.580;4.656;2024-03-08T03:00:20;38.80;;;18.10;;
69305;SDS011;56427;51.580;4.656;2024-03-08T03:02:46;26.75;;;14.60;;
69305;SDS011;56427;51.580;4.656;2024-03-08T03:05:12;35.30;;;17.80;;
69305;SDS011;56427;51.580;4.656;2024-03-08T03:07:37;36.63;;;18.07;;
69305;SDS011;56427;51.580;4.656;2024-03-08T03:10:03;31.00;;;16.17;;
69305;SDS011;56427;51.580;4.656;2024-03-08T03:12:29;35.93;;;18.73;;
69305;SDS011;56427;51.580;4.656;2024-03-08T03:14:56;38.40;;;16.88;;
69305;SDS011;56427;51.580;4.656;2024-03-08T03:17:24;28.55;;;15.35;;
69305;SDS011;56427;51.580;4.656;2024-03-08T03:19:53;32.95;;;18.23;;
69305;SDS011;56427;51.580;4.656;2024-03-08T03:22:18;29.17;;;15.55;;
69305;SDS011;56427;51.580;4.656;2024-03-08T03:24:45;37.00;;;18.30;;
69305;SDS011;56427;51.580;4.656;2024-03-08T03:27:11;30.23;;;16.25;;
69305;SDS011;56427;51.580;4.656;2024-03-08T03:29:40;33.58;;;17.95;;
69305;SDS011;56427;51.580;4.656;2024-03-08T03:32:08;34.97;;;16.65;;
69305;SDS011;56427;51.580;4.656;2024-03-08T03:34:34;31.50;;;16.50;;
69305;SDS011;56427;51.580;4.656;2024-03-08T03:37:02;32.00;;;16.73;;
69305;SDS011;56427;51.580;4.656;2024-03-08T03:39:28;27.60;;;14.90;;
69305;SDS011;56427;51.580;4.656;2024-03-08T03:41:57;28.90;;;15.75;;
69305;SDS011;56427;51.580;4.656;2024-03-08T03:44:23;31.13;;;16.35;;
69305;SDS011;56427;51.580;4.656;2024-03-08T03:46:51;33.00;;;15.10;;
69305;SDS011;56427;51.580;4.656;2024-03-08T03:49:17;31.70;;;16.03;;
69305;SDS011;56427;51.580;4.656;2024-03-08T03:51:42;36.20;;;18.70;;
69305;SDS011;56427;51.580;4.656;2024-03-08T03:54:09;27.75;;;15.45;;
69305;SDS011;56427;51.580;4.656;2024-03-08T03:56:34;31.73;;;14.87;;
69305;SDS011;56427;51.580;4.656;2024-03-08T03:59:00;29.20;;;15.63;;
69305;SDS011;56427;51.580;4.656;2024-03-08T04:01:25;31.42;;;16.73;;
69305;SDS011;56427;51.580;4.656;2024-03-08T04:03:50;29.17;;;15.63;;
69305;SDS011;56427;51.580;4.656;2024-03-08T04:06:16;29.27;;;16.63;;
69305;SDS011;56427;51.580;4.656;2024-03-08T04:08:41;26.70;;;14.77;;
69305;SDS011;56427;51.580;4.656;2024-03-08T04:11:07;34.20;;;16.97;;
69305;SDS011;56427;51.580;4.656;2024-03-08T04:13:33;31.58;;;15.55;;
69305;SDS011;56427;51.580;4.656;2024-03-08T04:15:59;22.67;;;12.80;;
69305;SDS011;56427;51.580;4.656;2024-03-08T04:18:25;33.47;;;17.17;;
69305;SDS011;56427;51.580;4.656;2024-03-08T04:20:50;32.20;;;16.50;;
69305;SDS011;56427;51.580;4.656;2024-03-08T04:23:15;23.90;;;13.63;;
69305;SDS011;56427;51.580;4.656;2024-03-08T04:25:42;30.50;;;16.63;;
69305;SDS011;56427;51.580;4.656;2024-03-08T04:28:08;29.50;;;16.40;;
69305;SDS011;56427;51.580;4.656;2024-03-08T04:30:36;28.67;;;14.80;;
69305;SDS011;56427;51.580;4.656;2024-03-08T04:33:02;29.77;;;15.65;;
69305;SDS011;56427;51.580;4.656;2024-03-08T04:35:28;29.25;;;16.23;;
69305;SDS011;56427;51.580;4.656;2024-03-08T04:37:54;29.00;;;14.93;;
69305;SDS011;56427;51.580;4.656;2024-03-08T04:40:19;31.47;;;16.53;;
69305;SDS011;56427;51.580;4.656;2024-03-08T04:42:44;32.23;;;17.87;;
69305;SDS011;56427;51.580;4.656;2024-03-08T04:45:09;33.27;;;15.63;;
69305;SDS011;56427;51.580;4.656;2024-03-08T04:47:38;31.48;;;16.80;;
69305;SDS011;56427;51.580;4.656;2024-03-08T04:50:04;26.03;;;14.03;;
69305;SDS011;56427;51.580;4.656;2024-03-08T04:52:30;28.27;;;15.13;;
69305;SDS011;56427;51.580;4.656;2024-03-08T04:54:55;28.80;;;15.47;;
69305;SDS011;56427;51.580;4.656;2024-03-08T04:57:20;31.57;;;16.87;;
69305;SDS011;56427;51.580;4.656;2024-03-08T04:59:45;33.30;;;17.00;;
69305;SDS011;56427;51.580;4.656;2024-03-08T05:02:11;30.87;;;15.83;;
69305;SDS011;56427;51.580;4.656;2024-03-08T05:04:36;33.90;;;17.57;;
69305;SDS011;56427;51.580;4.656;2024-03-08T05:07:01;27.43;;;15.57;;
69305;SDS011;56427;51.580;4.656;2024-03-08T05:09:27;35.78;;;17.15;;
69305;SDS011;56427;51.580;4.656;2024-03-08T05:11:56;33.28;;;17.52;;
69305;SDS011;56427;51.580;4.656;2024-03-08T05:14:23;28.80;;;15.27;;
69305;SDS011;56427;51.580;4.656;2024-03-08T05:16:50;33.33;;;18.35;;
69305;SDS011;56427;51.580;4.656;2024-03-08T05:19:19;33.43;;;17.67;;
69305;SDS011;56427;51.580;4.656;2024-03-08T05:21:45;34.05;;;18.13;;
69305;SDS011;56427;51.580;4.656;2024-03-08T05:24:11;30.45;;;15.27;;
69305;SDS011;56427;51.580;4.656;2024-03-08T05:26:38;29.15;;;15.73;;
69305;SDS011;56427;51.580;4.656;2024-03-08T05:29:03;27.30;;;15.03;;
69305;SDS011;56427;51.580;4.656;2024-03-08T05:31:29;32.77;;;17.20;;
69305;SDS011;56427;51.580;4.656;2024-03-08T05:34:01;31.77;;;15.45;;
69305;SDS011;56427;51.580;4.656;2024-03-08T05:36:26;29.10;;;17.03;;
69305;SDS011;56427;51.580;4.656;2024-03-08T05:38:51;29.73;;;16.53;;
69305;SDS011;56427;51.580;4.656;2024-03-08T05:41:17;34.07;;;18.50;;
69305;SDS011;56427;51.580;4.656;2024-03-08T05:43:43;31.90;;;17.13;;
69305;SDS011;56427;51.580;4.656;2024-03-08T05:46:08;42.93;;;18.40;;
69305;SDS011;56427;51.580;4.656;2024-03-08T05:48:35;36.33;;;17.58;;
69305;SDS011;56427;51.580;4.656;2024-03-08T05:51:01;30.27;;;16.20;;
69305;SDS011;56427;51.580;4.656;2024-03-08T05:53:27;31.38;;;16.13;;
69305;SDS011;56427;51.580;4.656;2024-03-08T05:55:52;31.13;;;17.57;;
69305;SDS011;56427;51.580;4.656;2024-03-08T05:58:17;30.77;;;15.83;;
69305;SDS011;56427;51.580;4.656;2024-03-08T06:00:43;26.37;;;13.97;;
69305;SDS011;56427;51.580;4.656;2024-03-08T06:03:08;35.67;;;17.70;;
69305;SDS011;56427;51.580;4.656;2024-03-08T06:05:34;32.63;;;16.23;;
69305;SDS011;56427;51.580;4.656;2024-03-08T06:07:59;32.17;;;14.00;;
69305;SDS011;56427;51.580;4.656;2024-03-08T06:10:25;35.08;;;19.25;;
69305;SDS011;56427;51.580;4.656;2024-03-08T06:12:50;28.60;;;15.18;;
69305;SDS011;56427;51.580;4.656;2024-03-08T06:15:16;24.73;;;14.03;;
69305;SDS011;56427;51.580;4.656;2024-03-08T06:17:42;30.98;;;16.85;;
69305;SDS011;56427;51.580;4.656;2024-03-08T06:20:07;33.20;;;17.60;;
69305;SDS011;56427;51.580;4.656;2024-03-08T06:22:37;31.07;;;14.70;;
69305;SDS011;56427;51.580;4.656;2024-03-08T06:25:06;34.92;;;17.63;;
69305;SDS011;56427;51.580;4.656;2024-03-08T06:27:38;28.67;;;15.88;;
69305;SDS011;56427;51.580;4.656;2024-03-08T06:30:04;29.52;;;17.48;;
69305;SDS011;56427;51.580;4.656;2024-03-08T06:32:30;28.38;;;15.85;;
69305;SDS011;56427;51.580;4.656;2024-03-08T06:35:00;30.00;;;14.65;;
69305;SDS011;56427;51.580;4.656;2024-03-08T06:37:26;30.07;;;16.50;;
69305;SDS011;56427;51.580;4.656;2024-03-08T06:39:51;27.10;;;15.10;;
69305;SDS011;56427;51.580;4.656;2024-03-08T06:42:17;28.83;;;15.77;;
69305;SDS011;56427;51.580;4.656;2024-03-08T06:44:42;29.23;;;15.70;;
69305;SDS011;56427;51.580;4.656;2024-03-08T06:47:14;33.03;;;16.52;;
69305;SDS011;56427;51.580;4.656;2024-03-08T06:49:40;31.70;;;17.45;;
69305;SDS011;56427;51.580;4.656;2024-03-08T06:52:06;36.87;;;18.73;;
69305;SDS011;56427;51.580;4.656;2024-03-08T06:54:33;32.88;;;17.10;;
69305;SDS011;56427;51.580;4.656;2024-03-08T06:57:01;25.77;;;14.65;;
69305;SDS011;56427;51.580;4.656;2024-03-08T06:59:28;28.90;;;15.77;;
69305;SDS011;56427;51.580;4.656;2024-03-08T07:01:54;30.90;;;16.53;;
69305;SDS011;56427;51.580;4.656;2024-03-08T07:04:19;32.58;;;17.73;;
69305;SDS011;56427;51.580;4.656;2024-03-08T07:06:46;28.53;;;15.07;;
69305;SDS011;56427;51.580;4.656;2024-03-08T07:09:15;31.30;;;17.00;;
69305;SDS011;56427;51.580;4.656;2024-03-08T07:11:41;31.10;;;13.77;;
69305;SDS011;56427;51.580;4.656;2024-03-08T07:14:07;28.60;;;15.50;;
69305;SDS011;56427;51.580;4.656;2024-03-08T07:16:33;29.45;;;16.45;;
69305;SDS011;56427;51.580;4.656;2024-03-08T07:19:00;35.15;;;18.02;;
69305;SDS011;56427;51.580;4.656;2024-03-08T07:21:28;30.02;;;15.57;;
69305;SDS011;56427;51.580;4.656;2024-03-08T07:23:54;27.63;;;15.00;;
69305;SDS011;56427;51.580;4.656;2024-03-08T07:26:25;26.48;;;15.80;;
69305;SDS011;56427;51.580;4.656;2024-03-08T07:28:50;35.10;;;18.70;;
69305;SDS011;56427;51.580;4.656;2024-03-08T07:31:16;27.13;;;15.73;;
69305;SDS011;56427;51.580;4.656;2024-03-08T07:33:50;31.45;;;16.15;;
69305;SDS011;56427;51.580;4.656;2024-03-08T07:36:15;30.70;;;15.83;;
69305;SDS011;56427;51.580;4.656;2024-03-08T07:38:41;29.50;;;15.30;;
69305;SDS011;56427;51.580;4.656;2024-03-08T07:41:06;29.45;;;16.85;;
69305;SDS011;56427;51.580;4.656;2024-03-08T07:43:31;27.93;;;15.17;;
69305;SDS011;56427;51.580;4.656;2024-03-08T07:45:57;33.80;;;18.03;;
69305;SDS011;56427;51.580;4.656;2024-03-08T07:48:23;25.80;;;14.88;;
69305;SDS011;56427;51.580;4.656;2024-03-08T07:50:48;27.90;;;14.87;;
69305;SDS011;56427;51.580;4.656;2024-03-08T07:53:15;27.42;;;14.85;;
69305;SDS011;56427;51.580;4.656;2024-03-08T07:55:40;27.50;;;15.77;;
69305;SDS011;56427;51.580;4.656;2024-03-08T07:58:07;31.20;;;16.73;;
69305;SDS011;56427;51.580;4.656;2024-03-08T08:00:35;25.90;;;15.63;;
69305;SDS011;56427;51.580;4.656;2024-03-08T08:03:01;28.98;;;15.52;;
69305;SDS011;56427;51.580;4.656;2024-03-08T08:05:27;30.60;;;16.73;;
69305;SDS011;56427;51.580;4.656;2024-03-08T08:07:52;28.13;;;15.00;;
69305;SDS011;56427;51.580;4.656;2024-03-08T08:10:18;26.13;;;15.60;;
69305;SDS011;56427;51.580;4.656;2024-03-08T08:12:46;26.85;;;13.00;;
69305;SDS011;56427;51.580;4.656;2024-03-08T08:15:11;27.10;;;15.23;;
69305;SDS011;56427;51.580;4.656;2024-03-08T08:17:37;26.33;;;14.50;;
69305;SDS011;56427;51.580;4.656;2024-03-08T08:20:03;29.95;;;16.95;;
69305;SDS011;56427;51.580;4.656;2024-03-08T08:22:31;26.63;;;16.50;;
69305;SDS011;56427;51.580;4.656;2024-03-08T08:24:56;27.90;;;15.87;;
69305;SDS011;56427;51.580;4.656;2024-03-08T08:27:21;28.10;;;15.33;;
69305;SDS011;56427;51.580;4.656;2024-03-08T08:29:46;26.63;;;13.82;;
69305;SDS011;56427;51.580;4.656;2024-03-08T08:32:12;24.88;;;13.88;;
69305;SDS011;56427;51.580;4.656;2024-03-08T08:34:38;26.23;;;15.83;;
69305;SDS011;56427;51.580;4.656;2024-03-08T08:37:03;26.93;;;15.47;;
69305;SDS011;56427;51.580;4.656;2024-03-08T08:39:28;26.50;;;14.63;;
69305;SDS011;56427;51.580;4.656;2024-03-08T08:41:54;26.88;;;14.57;;
69305;SDS011;56427;51.580;4.656;2024-03-08T08:44:19;25.08;;;13.85;;
69305;SDS011;56427;51.580;4.656;2024-03-08T08:46:44;26.03;;;14.37;;
69305;SDS011;56427;51.580;4.656;2024-03-08T08:49:09;30.20;;;17.00;;
69305;SDS011;56427;51.580;4.656;2024-03-08T08:51:39;24.33;;;12.95;;
69305;SDS011;56427;51.580;4.656;2024-03-08T08:54:05;26.43;;;14.47;;
69305;SDS011;56427;51.580;4.656;2024-03-08T08:56:31;25.95;;;13.90;;
69305;SDS011;56427;51.580;4.656;2024-03-08T08:58:56;27.70;;;14.97;;
69305;SDS011;56427;51.580;4.656;2024-03-08T09:01:22;26.17;;;14.35;;
69305;SDS011;56427;51.580;4.656;2024-03-08T09:03:48;26.90;;;16.60;;
69305;SDS011;56427;51.580;4.656;2024-03-08T09:06:15;26.55;;;14.05;;
69305;SDS011;56427;51.580;4.656;2024-03-08T09:08:41;27.67;;;15.80;;
69305;SDS011;56427;51.580;4.656;2024-03-08T09:11:07;25.20;;;15.57;;
69305;SDS011;56427;51.580;4.656;2024-03-08T09:13:32;29.67;;;16.15;;
69305;SDS011;56427;51.580;4.656;2024-03-08T09:15:58;27.40;;;15.70;;
69305;SDS011;56427;51.580;4.656;2024-03-08T09:18:24;31.10;;;15.38;;
69305;SDS011;56427;51.580;4.656;2024-03-08T09:20:50;25.67;;;14.67;;
69305;SDS011;56427;51.580;4.656;2024-03-08T09:23:16;25.33;;;14.35;;
69305;SDS011;56427;51.580;4.656;2024-03-08T09:25:44;26.05;;;13.25;;
69305;SDS011;56427;51.580;4.656;2024-03-08T09:28:10;24.63;;;14.50;;
69305;SDS011;56427;51.580;4.656;2024-03-08T09:30:37;23.42;;;14.60;;
69305;SDS011;56427;51.580;4.656;2024-03-08T09:33:03;29.45;;;15.18;;
69305;SDS011;56427;51.580;4.656;2024-03-08T09:35:29;26.03;;;15.47;;
69305;SDS011;56427;51.580;4.656;2024-03-08T09:37:55;26.50;;;15.18;;
69305;SDS011;56427;51.580;4.656;2024-03-08T09:40:20;24.67;;;15.75;;
69305;SDS011;56427;51.580;4.656;2024-03-08T09:42:48;22.63;;;13.47;;
69305;SDS011;56427;51.580;4.656;2024-03-08T09:45:14;22.17;;;14.00;;
69305;SDS011;56427;51.580;4.656;2024-03-08T09:47:42;23.33;;;13.63;;
69305;SDS011;56427;51.580;4.656;2024-03-08T09:50:09;21.08;;;11.80;;
69305;SDS011;56427;51.580;4.656;2024-03-08T09:52:46;29.65;;;13.80;;
69305;SDS011;56427;51.580;4.656;2024-03-08T09:55:13;19.67;;;10.57;;
69305;SDS011;56427;51.580;4.656;2024-03-08T09:57:39;23.43;;;12.30;;
69305;SDS011;56427;51.580;4.656;2024-03-08T10:00:05;25.10;;;13.68;;
69305;SDS011;56427;51.580;4.656;2024-03-08T10:02:46;19.42;;;11.52;;
69305;SDS011;56427;51.580;4.656;2024-03-08T10:05:12;21.38;;;12.35;;
69305;SDS011;56427;51.580;4.656;2024-03-08T10:07:38;20.25;;;11.57;;
69305;SDS011;56427;51.580;4.656;2024-03-08T10:10:04;21.33;;;11.93;;
69305;SDS011;56427;51.580;4.656;2024-03-08T10:12:30;21.53;;;12.63;;
69305;SDS011;56427;51.580;4.656;2024-03-08T10:14:57;21.27;;;13.35;;
69305;SDS011;56427;51.580;4.656;2024-03-08T10:17:23;21.55;;;13.55;;
69305;SDS011;56427;51.580;4.656;2024-03-08T10:19:49;20.23;;;11.47;;
69305;SDS011;56427;51.580;4.656;2024-03-08T10:22:16;24.48;;;13.52;;
69305;SDS011;56427;51.580;4.656;2024-03-08T10:24:42;21.17;;;12.25;;
69305;SDS011;56427;51.580;4.656;2024-03-08T10:27:10;21.92;;;12.05;;
69305;SDS011;56427;51.580;4.656;2024-03-08T10:29:36;17.50;;;10.73;;
69305;SDS011;56427;51.580;4.656;2024-03-08T10:32:02;18.13;;;11.70;;
69305;SDS011;56427;51.580;4.656;2024-03-08T10:34:30;24.08;;;11.38;;
69305;SDS011;56427;51.580;4.656;2024-03-08T10:36:56;20.77;;;12.27;;
69305;SDS011;56427;51.580;4.656;2024-03-08T10:39:27;19.40;;;11.93;;
69305;SDS011;56427;51.580;4.656;2024-03-08T10:41:56;18.77;;;10.60;;
69305;SDS011;56427;51.580;4.656;2024-03-08T10:49:57;16.85;;;10.35;;
69305;SDS011;56427;51.580;4.656;2024-03-08T10:52:33;22.80;;;10.82;;
69305;SDS011;56427;51.580;4.656;2024-03-08T10:54:59;18.10;;;10.32;;
69305;SDS011;56427;51.580;4.656;2024-03-08T10:57:27;21.48;;;11.93;;
69305;SDS011;56427;51.580;4.656;2024-03-08T10:59:52;21.13;;;12.20;;
69305;SDS011;56427;51.580;4.656;2024-03-08T11:02:18;18.70;;;10.33;;
69305;SDS011;56427;51.580;4.656;2024-03-08T11:04:47;21.90;;;11.20;;
69305;SDS011;56427;51.580;4.656;2024-03-08T11:07:14;20.00;;;11.35;;
69305;SDS011;56427;51.580;4.656;2024-03-08T11:09:43;20.10;;;11.70;;
69305;SDS011;56427;51.580;4.656;2024-03-08T11:12:26;20.95;;;11.98;;
69305;SDS011;56427;51.580;4.656;2024-03-08T11:15:00;20.07;;;11.17;;
69305;SDS011;56427;51.580;4.656;2024-03-08T11:19:57;20.70;;;11.07;;
69305;SDS011;56427;51.580;4.656;2024-03-08T11:22:27;16.70;;;10.32;;
69305;SDS011;56427;51.580;4.656;2024-03-08T11:25:01;21.75;;;11.13;;
69305;SDS011;56427;51.580;4.656;2024-03-08T11:27:34;19.53;;;10.43;;
69305;SDS011;56427;51.580;4.656;2024-03-08T11:30:02;18.98;;;9.75;;
69305;SDS011;56427;51.580;4.656;2024-03-08T11:32:36;18.13;;;10.07;;
69305;SDS011;56427;51.580;4.656;2024-03-08T11:35:05;17.95;;;9.88;;
69305;SDS011;56427;51.580;4.656;2024-03-08T11:37:33;20.88;;;9.95;;
69305;SDS011;56427;51.580;4.656;2024-03-08T11:40:02;19.17;;;11.10;;
69305;SDS011;56427;51.580;4.656;2024-03-08T11:42:39;18.90;;;9.20;;
69305;SDS011;56427;51.580;4.656;2024-03-08T11:45:09;18.80;;;10.65;;
69305;SDS011;56427;51.580;4.656;2024-03-08T11:47:36;17.80;;;10.75;;
69305;SDS011;56427;51.580;4.656;2024-03-08T11:50:04;19.15;;;10.82;;
69305;SDS011;56427;51.580;4.656;2024-03-08T11:52:35;16.10;;;9.53;;
69305;SDS011;56427;51.580;4.656;2024-03-08T11:55:01;22.17;;;11.13;;
69305;SDS011;56427;51.580;4.656;2024-03-08T11:57:26;18.87;;;11.33;;
69305;SDS011;56427;51.580;4.656;2024-03-08T11:59:54;19.52;;;10.48;;
69305;SDS011;56427;51.580;4.656;2024-03-08T12:02:23;18.52;;;10.85;;
69305;SDS011;56427;51.580;4.656;2024-03-08T12:04:55;18.13;;;9.70;;
69305;SDS011;56427;51.580;4.656;2024-03-08T12:07:22;16.07;;;9.57;;
69305;SDS011;56427;51.580;4.656;2024-03-08T12:12:46;17.63;;;11.30;;
69305;SDS011;56427;51.580;4.656;2024-03-08T12:15:13;17.40;;;10.65;;
69305;SDS011;56427;51.580;4.656;2024-03-08T12:17:40;18.43;;;11.00;;
69305;SDS011;56427;51.580;4.656;2024-03-08T12:22:42;18.02;;;10.43;;
69305;SDS011;56427;51.580;4.656;2024-03-08T12:25:11;15.57;;;8.95;;
69305;SDS011;56427;51.580;4.656;2024-03-08T12:27:40;15.63;;;9.00;;
69305;SDS011;56427;51.580;4.656;2024-03-08T12:30:23;17.50;;;9.80;;
69305;SDS011;56427;51.580;4.656;2024-03-08T12:35:25;17.33;;;9.50;;
69305;SDS011;56427;51.580;4.656;2024-03-08T12:37:52;15.13;;;9.32;;
69305;SDS011;56427;51.580;4.656;2024-03-08T12:40:19;21.73;;;10.45;;
69305;SDS011;56427;51.580;4.656;2024-03-08T12:42:51;18.70;;;9.77;;
69305;SDS011;56427;51.580;4.656;2024-03-08T12:45:17;17.83;;;10.00;;
69305;SDS011;56427;51.580;4.656;2024-03-08T12:47:42;15.43;;;9.50;;
69305;SDS011;56427;51.580;4.656;2024-03-08T12:50:08;16.23;;;9.10;;
69305;SDS011;56427;51.580;4.656;2024-03-08T12:52:34;16.25;;;9.40;;
69305;SDS011;56427;51.580;4.656;2024-03-08T12:55:00;15.90;;;9.27;;
69305;SDS011;56427;51.580;4.656;2024-03-08T12:57:28;16.70;;;9.73;;
69305;SDS011;56427;51.580;4.656;2024-03-08T12:59:53;15.63;;;8.87;;
69305;SDS011;56427;51.580;4.656;2024-03-08T13:02:19;16.53;;;9.40;;
69305;SDS011;56427;51.580;4.656;2024-03-08T13:04:46;15.65;;;9.90;;
69305;SDS011;56427;51.580;4.656;2024-03-08T13:07:20;18.13;;;10.13;;
69305;SDS011;56427;51.580;4.656;2024-03-08T13:09:46;19.67;;;9.52;;
69305;SDS011;56427;51.580;4.656;2024-03-08T13:12:11;19.77;;;11.10;;
69305;SDS011;56427;51.580;4.656;2024-03-08T13:14:37;18.43;;;10.00;;
69305;SDS011;56427;51.580;4.656;2024-03-08T13:17:02;15.93;;;9.27;;
69305;SDS011;56427;51.580;4.656;2024-03-08T13:19:29;17.02;;;9.90;;
69305;SDS011;56427;51.580;4.656;2024-03-08T13:21:54;17.60;;;9.07;;
69305;SDS011;56427;51.580;4.656;2024-03-08T13:24:20;15.07;;;8.97;;
69305;SDS011;56427;51.580;4.656;2024-03-08T13:26:45;17.47;;;8.70;;
69305;SDS011;56427;51.580;4.656;2024-03-08T13:29:11;19.63;;;10.53;;
69305;SDS011;56427;51.580;4.656;2024-03-08T13:31:37;16.50;;;9.10;;
69305;SDS011;56427;51.580;4.656;2024-03-08T13:34:02;18.33;;;8.23;;
69305;SDS011;56427;51.580;4.656;2024-03-08T13:36:30;14.13;;;8.07;;
69305;SDS011;56427;51.580;4.656;2024-03-08T13:39:04;14.40;;;8.32;;
69305;SDS011;56427;51.580;4.656;2024-03-08T13:41:35;14.77;;;8.90;;
69305;SDS011;56427;51.580;4.656;2024-03-08T13:44:00;14.53;;;8.97;;
69305;SDS011;56427;51.580;4.656;2024-03-08T13:46:26;16.03;;;9.37;;
69305;SDS011;56427;51.580;4.656;2024-03-08T13:48:51;17.00;;;10.20;;
69305;SDS011;56427;51.580;4.656;2024-03-08T13:51:18;16.30;;;9.93;;
69305;SDS011;56427;51.580;4.656;2024-03-08T13:53:45;15.35;;;9.32;;
69305;SDS011;56427;51.580;4.656;2024-03-08T13:56:10;20.57;;;10.03;;
69305;SDS011;56427;51.580;4.656;2024-03-08T13:58:35;15.57;;;9.77;;
69305;SDS011;56427;51.580;4.656;2024-03-08T14:01:01;15.03;;;9.23;;
69305;SDS011;56427;51.580;4.656;2024-03-08T14:03:28;17.23;;;9.10;;
69305;SDS011;56427;51.580;4.656;2024-03-08T14:05:54;16.60;;;9.60;;
69305;SDS011;56427;51.580;4.656;2024-03-08T14:08:20;19.50;;;9.85;;
69305;SDS011;56427;51.580;4.656;2024-03-08T14:10:46;16.13;;;9.57;;
69305;SDS011;56427;51.580;4.656;2024-03-08T14:13:14;14.17;;;8.57;;
69305;SDS011;56427;51.580;4.656;2024-03-08T14:15:41;14.27;;;9.02;;
69305;SDS011;56427;51.580;4.656;2024-03-08T14:18:07;16.77;;;10.10;;
69305;SDS011;56427;51.580;4.656;2024-03-08T14:20:33;14.35;;;8.90;;
69305;SDS011;56427;51.580;4.656;2024-03-08T14:22:59;14.13;;;8.03;;
69305;SDS011;56427;51.580;4.656;2024-03-08T14:25:24;15.60;;;8.32;;
69305;SDS011;56427;51.580;4.656;2024-03-08T14:27:50;14.37;;;8.10;;
69305;SDS011;56427;51.580;4.656;2024-03-08T14:30:23;14.73;;;8.48;;
69305;SDS011;56427;51.580;4.656;2024-03-08T14:32:58;14.05;;;8.23;;
69305;SDS011;56427;51.580;4.656;2024-03-08T14:35:24;20.63;;;9.97;;
69305;SDS011;56427;51.580;4.656;2024-03-08T14:37:50;18.02;;;8.90;;